sensor_id;sensor_type;location;lat;lon;timestamp;P1;durP1;ratioP1;P2;durP2;ratioP2
37955;SDS011;23776;51.592;7.180;2022-11-28T00:02:00;9.45;;;4.68;;
37955;SDS011;23776;51.592;7.180;2022-11-28T00:04:25;15.95;;;5.97;;
37955;SDS011;23776;51.592;7.180;2022-11-28T00:06:51;9.38;;;4.80;;
37955;SDS011;23776;51.592;7.180;2022-11-28T00:09:18;10.95;;;4.80;;
37955;SDS011;23776;51.592;7.180;2022-11-28T00:11:45;11.00;;;4.93;;
37955;SDS011;23776;51.592;7.180;2022-11-28T00:14:12;8.07;;;5.13;;
37955;SDS011;23776;51.592;7.180;2022-11-28T00:16:38;13.25;;;5.35;;
37955;SDS011;23776;51.592;7.180;2022-11-28T00:19:05;14.95;;;5.57;;
37955;SDS011;23776;51.592;7.180;2022-11-28T00:21:31;16.20;;;5.75;;
37955;SDS011;23776;51.592;7.180;2022-11-28T00:23:58;14.13;;;6.10;;
37955;SDS011;23776;51.592;7.180;2022-11-28T00:26:25;14.77;;;5.57;;
37955;SDS011;23776;51.592;7.180;2022-11-28T00:28:54;10.43;;;5.25;;
37955;SDS011;23776;51.592;7.180;2022-11-28T00:31:22;18.15;;;6.18;;
37955;SDS011;23776;51.592;7.180;2022-11-28T00:33:52;11.45;;;5.53;;
37955;SDS011;23776;51.592;7.180;2022-11-28T00:36:18;14.20;;;6.47;;
37955;SDS011;23776;51.592;7.180;2022-11-28T00:38:45;9.43;;;5.65;;
37955;SDS011;23776;51.592;7.180;2022-11-28T00:41:13;11.30;;;5.30;;
37955;SDS011;23776;51.592;7.180;2022-11-28T00:43:44;13.52;;;5.80;;
37955;SDS011;23776;51.592;7.180;2022-11-28T00:46:11;14.10;;;6.32;;
37955;SDS011;23776;51.592;7.180;2022-11-28T00:48:37;14.85;;;7.07;;
37955;SDS011;23776;51.592;7.180;2022-11-28T00:51:07;15.43;;;7.07;;
37955;SDS011;23776;51.592;7.180;2022-11-28T00:53:36;12.77;;;6.28;;
37955;SDS011;23776;51.592;7.180;2022-11-28T00:56:05;13.68;;;6.45;;
37955;SDS011;23776;51.592;7.180;2022-11-28T00:58:32;11.63;;;5.57;;
37955;SDS011;23776;51.592;7.180;2022-11-28T01:00:58;11.93;;;6.40;;
37955;SDS011;23776;51.592;7.180;2022-11-28T01:03:24;15.98;;;6.45;;
37955;SDS011;23776;51.592;7.180;2022-11-28T01:05:50;16.60;;;6.53;;
37955;SDS011;23776;51.592;7.180;2022-11-28T01:08:16;15.32;;;6.50;;
37955;SDS011;23776;51.592;7.180;2022-11-28T01:10:42;12.77;;;6.57;;
37955;SDS011;23776;51.592;7.180;2022-11-28T01:13:09;13.32;;;5.97;;
37955;SDS011;23776;51.592;7.180;2022-11-28T01:15:38;10.88;;;6.20;;
37955;SDS011;23776;51.592;7.180;2022-11-28T01:18:06;11.35;;;6.43;;
37955;SDS011;23776;51.592;7.180;2022-11-28T01:20:32;11.23;;;6.18;;
37955;SDS011;23776;51.592;7.180;2022-11-28T01:22:57;18.75;;;7.35;;
37955;SDS011;23776;51.592;7.180;2022-11-28T01:25:23;10.25;;;5.38;;
37955;SDS011;23776;51.592;7.180;2022-11-28T01:27:49;13.80;;;5.90;;
37955;SDS011;23776;51.592;7.180;2022-11-28T01:30:15;11.63;;;5.95;;
37955;SDS011;23776;51.592;7.180;2022-11-28T01:32:40;18.05;;;6.72;;
37955;SDS011;23776;51.592;7.180;2022-11-28T01:35:06;14.70;;;6.57;;
37955;SDS011;23776;51.592;7.180;2022-11-28T01:37:32;12.35;;;6.45;;
37955;SDS011;23776;51.592;7.180;2022-11-28T01:39:58;13.70;;;6.97;;
37955;SDS011;23776;51.592;7.180;2022-11-28T01:42:23;15.48;;;5.80;;
37955;SDS011;23776;51.592;7.180;2022-11-28T01:47:15;13.18;;;6.63;;
37955;SDS011;23776;51.592;7.180;2022-11-28T01:49:45;12.60;;;6.07;;
37955;SDS011;23776;51.592;7.180;2022-11-28T01:52:14;12.70;;;6.35;;
37955;SDS011;23776;51.592;7.180;2022-11-28T01:54:44;10.85;;;6.07;;
37955;SDS011;23776;51.592;7.180;2022-11-28T01:57:14;12.05;;;5.57;;
37955;SDS011;23776;51.592;7.180;2022-11-28T02:00:06;12.25;;;6.05;;
37955;SDS011;23776;51.592;7.180;2022-11-28T02:02:39;13.75;;;5.40;;
37955;SDS011;23776;51.592;7.180;2022-11-28T02:05:10;9.60;;;5.57;;
37955;SDS011;23776;51.592;7.180;2022-11-28T02:07:36;16.92;;;5.75;;
37955;SDS011;23776;51.592;7.180;2022-11-28T02:10:03;12.38;;;5.65;;
37955;SDS011;23776;51.592;7.180;2022-11-28T02:12:51;12.25;;;6.03;;
37955;SDS011;23776;51.592;7.180;2022-11-28T02:15:26;10.98;;;5.53;;
37955;SDS011;23776;51.592;7.180;2022-11-28T02:33:58;13.85;;;6.82;;
37955;SDS011;23776;51.592;7.180;2022-11-28T02:36:39;15.98;;;6.55;;
37955;SDS011;23776;51.592;7.180;2022-11-28T02:39:23;18.80;;;6.63;;
37955;SDS011;23776;51.592;7.180;2022-11-28T02:42:07;12.27;;;6.70;;
37955;SDS011;23776;51.592;7.180;2022-11-28T02:44:54;11.80;;;6.10;;
37955;SDS011;23776;51.592;7.180;2022-11-28T02:47:31;14.07;;;6.78;;
37955;SDS011;23776;51.592;7.180;2022-11-28T02:50:11;13.30;;;6.93;;
37955;SDS011;23776;51.592;7.180;2022-11-28T02:52:51;15.60;;;6.97;;
37955;SDS011;23776;51.592;7.180;2022-11-28T02:55:20;11.13;;;6.43;;
37955;SDS011;23776;51.592;7.180;2022-11-28T02:57:50;12.57;;;6.97;;
37955;SDS011;23776;51.592;7.180;2022-11-28T03:02:59;12.50;;;7.10;;
37955;SDS011;23776;51.592;7.180;2022-11-28T03:21:56;13.32;;;7.10;;
37955;SDS011;23776;51.592;7.180;2022-11-28T03:24:40;12.80;;;7.03;;
37955;SDS011;23776;51.592;7.180;2022-11-28T03:27:22;10.88;;;6.20;;
37955;SDS011;23776;51.592;7.180;2022-11-28T03:29:53;11.88;;;6.32;;
37955;SDS011;23776;51.592;7.180;2022-11-28T03:32:29;13.35;;;6.57;;
37955;SDS011;23776;51.592;7.180;2022-11-28T03:35:05;13.85;;;6.32;;
37955;SDS011;23776;51.592;7.180;2022-11-28T03:37:39;13.93;;;6.07;;
37955;SDS011;23776;51.592;7.180;2022-11-28T03:40:16;15.38;;;6.13;;
37955;SDS011;23776;51.592;7.180;2022-11-28T03:42:47;16.55;;;6.68;;
37955;SDS011;23776;51.592;7.180;2022-11-28T03:45:28;12.15;;;6.35;;
37955;SDS011;23776;51.592;7.180;2022-11-28T03:48:04;10.90;;;6.53;;
37955;SDS011;23776;51.592;7.180;2022-11-28T03:50:41;10.13;;;5.75;;
37955;SDS011;23776;51.592;7.180;2022-11-28T03:53:11;10.70;;;6.20;;
37955;SDS011;23776;51.592;7.180;2022-11-28T03:55:59;12.90;;;6.35;;
37955;SDS011;23776;51.592;7.180;2022-11-28T03:58:54;14.68;;;6.63;;
37955;SDS011;23776;51.592;7.180;2022-11-28T04:01:32;12.50;;;6.18;;
37955;SDS011;23776;51.592;7.180;2022-11-28T04:04:04;11.82;;;6.47;;
37955;SDS011;23776;51.592;7.180;2022-11-28T04:06:52;12.93;;;6.03;;
37955;SDS011;23776;51.592;7.180;2022-11-28T04:09:49;12.13;;;6.45;;
37955;SDS011;23776;51.592;7.180;2022-11-28T04:15:34;11.90;;;5.90;;
37955;SDS011;23776;51.592;7.180;2022-11-28T04:18:10;14.70;;;6.70;;
37955;SDS011;23776;51.592;7.180;2022-11-28T04:20:56;14.63;;;6.63;;
37955;SDS011;23776;51.592;7.180;2022-11-28T04:23:24;13.20;;;6.80;;
37955;SDS011;23776;51.592;7.180;2022-11-28T04:25:53;11.82;;;6.63;;
37955;SDS011;23776;51.592;7.180;2022-11-28T04:28:24;11.70;;;5.65;;
37955;SDS011;23776;51.592;7.180;2022-11-28T04:30:53;10.50;;;5.65;;
37955;SDS011;23776;51.592;7.180;2022-11-28T04:33:24;9.27;;;5.60;;
37955;SDS011;23776;51.592;7.180;2022-11-28T04:35:53;12.05;;;5.40;;
37955;SDS011;23776;51.592;7.180;2022-11-28T04:38:20;12.38;;;5.95;;
37955;SDS011;23776;51.592;7.180;2022-11-28T04:40:52;11.75;;;5.45;;
37955;SDS011;23776;51.592;7.180;2022-11-28T04:43:32;10.98;;;5.50;;
37955;SDS011;23776;51.592;7.180;2022-11-28T04:46:06;11.85;;;5.68;;
37955;SDS011;23776;51.592;7.180;2022-11-28T04:48:38;11.27;;;5.57;;
37955;SDS011;23776;51.592;7.180;2022-11-28T04:51:14;15.45;;;6.53;;
37955;SDS011;23776;51.592;7.180;2022-11-28T04:53:55;11.23;;;5.80;;
37955;SDS011;23776;51.592;7.180;2022-11-28T04:56:35;11.60;;;5.95;;
37955;SDS011;23776;51.592;7.180;2022-11-28T04:59:24;11.68;;;5.93;;
37955;SDS011;23776;51.592;7.180;2022-11-28T05:01:52;12.00;;;6.35;;
37955;SDS011;23776;51.592;7.180;2022-11-28T05:04:19;12.60;;;6.32;;
37955;SDS011;23776;51.592;7.180;2022-11-28T05:06:45;9.82;;;5.50;;
37955;SDS011;23776;51.592;7.180;2022-11-28T05:09:11;16.60;;;6.32;;
37955;SDS011;23776;51.592;7.180;2022-11-28T05:11:37;13.60;;;5.75;;
37955;SDS011;23776;51.592;7.180;2022-11-28T05:14:03;8.88;;;5.55;;
37955;SDS011;23776;51.592;7.180;2022-11-28T05:16:29;15.95;;;6.60;;
37955;SDS011;23776;51.592;7.180;2022-11-28T05:18:54;9.88;;;5.72;;
37955;SDS011;23776;51.592;7.180;2022-11-28T05:21:20;10.52;;;5.97;;
37955;SDS011;23776;51.592;7.180;2022-11-28T05:23:46;11.90;;;5.68;;
37955;SDS011;23776;51.592;7.180;2022-11-28T05:26:13;11.93;;;6.25;;
37955;SDS011;23776;51.592;7.180;2022-11-28T05:28:43;12.30;;;6.53;;
37955;SDS011;23776;51.592;7.180;2022-11-28T05:31:11;10.65;;;5.40;;
37955;SDS011;23776;51.592;7.180;2022-11-28T05:33:37;14.23;;;6.60;;
37955;SDS011;23776;51.592;7.180;2022-11-28T05:36:08;10.60;;;6.05;;
37955;SDS011;23776;51.592;7.180;2022-11-28T05:38:36;12.18;;;6.47;;
37955;SDS011;23776;51.592;7.180;2022-11-28T05:41:02;11.02;;;6.55;;
37955;SDS011;23776;51.592;7.180;2022-11-28T05:43:27;11.13;;;6.18;;
37955;SDS011;23776;51.592;7.180;2022-11-28T05:45:53;12.57;;;6.53;;
37955;SDS011;23776;51.592;7.180;2022-11-28T05:48:20;15.30;;;6.35;;
37955;SDS011;23776;51.592;7.180;2022-11-28T05:50:46;9.18;;;5.30;;
37955;SDS011;23776;51.592;7.180;2022-11-28T05:53:14;12.85;;;6.13;;
37955;SDS011;23776;51.592;7.180;2022-11-28T05:55:41;11.77;;;6.35;;
37955;SDS011;23776;51.592;7.180;2022-11-28T05:58:07;12.32;;;6.05;;
37955;SDS011;23776;51.592;7.180;2022-11-28T06:00:32;8.85;;;5.90;;
37955;SDS011;23776;51.592;7.180;2022-11-28T06:02:59;11.27;;;6.03;;
37955;SDS011;23776;51.592;7.180;2022-11-28T06:05:24;17.00;;;5.57;;
37955;SDS011;23776;51.592;7.180;2022-11-28T06:07:50;15.07;;;6.28;;
37955;SDS011;23776;51.592;7.180;2022-11-28T06:10:16;11.57;;;5.32;;
37955;SDS011;23776;51.592;7.180;2022-11-28T06:12:43;18.02;;;6.63;;
37955;SDS011;23776;51.592;7.180;2022-11-28T06:15:08;11.95;;;5.68;;
37955;SDS011;23776;51.592;7.180;2022-11-28T06:17:34;10.15;;;5.57;;
37955;SDS011;23776;51.592;7.180;2022-11-28T06:20:00;14.93;;;6.57;;
37955;SDS011;23776;51.592;7.180;2022-11-28T06:22:26;11.40;;;6.03;;
37955;SDS011;23776;51.592;7.180;2022-11-28T06:24:51;12.50;;;6.57;;
37955;SDS011;23776;51.592;7.180;2022-11-28T06:27:17;14.30;;;6.50;;
37955;SDS011;23776;51.592;7.180;2022-11-28T06:29:43;17.42;;;6.45;;
37955;SDS011;23776;51.592;7.180;2022-11-28T06:32:08;13.32;;;6.47;;
37955;SDS011;23776;51.592;7.180;2022-11-28T06:34:34;13.85;;;7.13;;
37955;SDS011;23776;51.592;7.180;2022-11-28T06:36:59;12.82;;;6.55;;
37955;SDS011;23776;51.592;7.180;2022-11-28T06:39:25;14.75;;;6.38;;
37955;SDS011;23776;51.592;7.180;2022-11-28T06:41:50;14.65;;;6.88;;
37955;SDS011;23776;51.592;7.180;2022-11-28T06:44:16;12.13;;;6.07;;
37955;SDS011;23776;51.592;7.180;2022-11-28T06:46:42;14.90;;;8.13;;
37955;SDS011;23776;51.592;7.180;2022-11-28T06:49:09;11.13;;;6.22;;
37955;SDS011;23776;51.592;7.180;2022-11-28T06:51:39;15.10;;;6.95;;
37955;SDS011;23776;51.592;7.180;2022-11-28T06:54:06;10.43;;;5.95;;
37955;SDS011;23776;51.592;7.180;2022-11-28T06:56:32;14.32;;;6.88;;
37955;SDS011;23776;51.592;7.180;2022-11-28T06:58:58;11.10;;;5.70;;
37955;SDS011;23776;51.592;7.180;2022-11-28T07:01:25;11.43;;;6.57;;
37955;SDS011;23776;51.592;7.180;2022-11-28T07:03:53;13.45;;;7.18;;
37955;SDS011;23776;51.592;7.180;2022-11-28T07:06:19;13.50;;;7.57;;
37955;SDS011;23776;51.592;7.180;2022-11-28T07:08:46;13.70;;;8.15;;
37955;SDS011;23776;51.592;7.180;2022-11-28T07:11:16;15.20;;;7.97;;
37955;SDS011;23776;51.592;7.180;2022-11-28T07:13:43;16.98;;;8.20;;
37955;SDS011;23776;51.592;7.180;2022-11-28T07:16:14;18.38;;;8.10;;
37955;SDS011;23776;51.592;7.180;2022-11-28T07:18:41;14.38;;;7.40;;
37955;SDS011;23776;51.592;7.180;2022-11-28T07:21:08;16.55;;;8.65;;
37955;SDS011;23776;51.592;7.180;2022-11-28T07:23:34;14.95;;;7.55;;
37955;SDS011;23776;51.592;7.180;2022-11-28T07:26:00;16.63;;;7.25;;
37955;SDS011;23776;51.592;7.180;2022-11-28T07:28:27;13.68;;;7.30;;
37955;SDS011;23776;51.592;7.180;2022-11-28T07:31:04;14.25;;;7.70;;
37955;SDS011;23776;51.592;7.180;2022-11-28T07:33:35;13.13;;;7.22;;
37955;SDS011;23776;51.592;7.180;2022-11-28T07:36:02;17.85;;;8.00;;
37955;SDS011;23776;51.592;7.180;2022-11-28T07:38:28;13.98;;;7.45;;
37955;SDS011;23776;51.592;7.180;2022-11-28T07:40:54;12.80;;;7.07;;
37955;SDS011;23776;51.592;7.180;2022-11-28T07:43:25;14.63;;;7.00;;
37955;SDS011;23776;51.592;7.180;2022-11-28T07:45:51;14.23;;;7.93;;
37955;SDS011;23776;51.592;7.180;2022-11-28T07:48:16;19.05;;;8.10;;
37955;SDS011;23776;51.592;7.180;2022-11-28T07:50:42;15.07;;;7.07;;
37955;SDS011;23776;51.592;7.180;2022-11-28T07:53:08;12.30;;;7.18;;
37955;SDS011;23776;51.592;7.180;2022-11-28T07:55:34;15.88;;;7.43;;
37955;SDS011;23776;51.592;7.180;2022-11-28T07:58:00;11.00;;;6.60;;
37955;SDS011;23776;51.592;7.180;2022-11-28T08:00:26;12.70;;;6.28;;
37955;SDS011;23776;51.592;7.180;2022-11-28T08:02:52;12.07;;;6.53;;
37955;SDS011;23776;51.592;7.180;2022-11-28T08:05:18;14.30;;;6.72;;
37955;SDS011;23776;51.592;7.180;2022-11-28T08:07:43;16.25;;;7.28;;
37955;SDS011;23776;51.592;7.180;2022-11-28T08:10:09;15.85;;;6.20;;
37955;SDS011;23776;51.592;7.180;2022-11-28T08:12:34;12.18;;;6.50;;
37955;SDS011;23776;51.592;7.180;2022-11-28T08:15:00;14.38;;;7.35;;
37955;SDS011;23776;51.592;7.180;2022-11-28T08:17:26;14.68;;;7.00;;
37955;SDS011;23776;51.592;7.180;2022-11-28T08:19:51;14.20;;;6.55;;
37955;SDS011;23776;51.592;7.180;2022-11-28T08:22:17;11.80;;;6.70;;
37955;SDS011;23776;51.592;7.180;2022-11-28T08:24:42;13.90;;;6.53;;
37955;SDS011;23776;51.592;7.180;2022-11-28T08:27:08;11.50;;;6.47;;
37955;SDS011;23776;51.592;7.180;2022-11-28T08:29:33;15.35;;;7.10;;
37955;SDS011;23776;51.592;7.180;2022-11-28T08:31:59;16.10;;;6.70;;
37955;SDS011;23776;51.592;7.180;2022-11-28T08:34:24;12.73;;;5.97;;
37955;SDS011;23776;51.592;7.180;2022-11-28T08:36:50;10.55;;;6.22;;
37955;SDS011;23776;51.592;7.180;2022-11-28T08:39:16;14.55;;;7.18;;
37955;SDS011;23776;51.592;7.180;2022-11-28T08:41:41;14.15;;;6.43;;
37955;SDS011;23776;51.592;7.180;2022-11-28T08:44:07;12.82;;;6.35;;
37955;SDS011;23776;51.592;7.180;2022-11-28T08:46:32;15.32;;;7.22;;
37955;SDS011;23776;51.592;7.180;2022-11-28T08:48:58;12.23;;;7.88;;
37955;SDS011;23776;51.592;7.180;2022-11-28T08:51:25;12.45;;;6.72;;
37955;SDS011;23776;51.592;7.180;2022-11-28T08:53:53;10.40;;;6.47;;
37955;SDS011;23776;51.592;7.180;2022-11-28T08:56:19;15.70;;;6.55;;
37955;SDS011;23776;51.592;7.180;2022-11-28T08:58:45;11.15;;;6.85;;
37955;SDS011;23776;51.592;7.180;2022-11-28T09:01:15;15.55;;;7.05;;
37955;SDS011;23776;51.592;7.180;2022-11-28T09:03:42;13.85;;;6.30;;
37955;SDS011;23776;51.592;7.180;2022-11-28T09:06:08;15.70;;;6.93;;
37955;SDS011;23776;51.592;7.180;2022-11-28T09:08:33;15.82;;;6.47;;
37955;SDS011;23776;51.592;7.180;2022-11-28T09:10:59;10.38;;;6.60;;
37955;SDS011;23776;51.592;7.180;2022-11-28T09:13:24;11.57;;;6.82;;
37955;SDS011;23776;51.592;7.180;2022-11-28T09:15:50;14.30;;;6.68;;
37955;SDS011;23776;51.592;7.180;2022-11-28T09:18:16;12.07;;;6.30;;
37955;SDS011;23776;51.592;7.180;2022-11-28T09:20:42;12.50;;;6.63;;
37955;SDS011;23776;51.592;7.180;2022-11-28T09:23:08;12.95;;;6.72;;
37955;SDS011;23776;51.592;7.180;2022-11-28T09:25:34;12.32;;;6.40;;
37955;SDS011;23776;51.592;7.180;2022-11-28T09:28:02;13.20;;;6.80;;
37955;SDS011;23776;51.592;7.180;2022-11-28T09:30:27;10.85;;;6.40;;
37955;SDS011;23776;51.592;7.180;2022-11-28T09:32:53;10.00;;;5.97;;
37955;SDS011;23776;51.592;7.180;2022-11-28T09:35:19;15.57;;;6.28;;
37955;SDS011;23776;51.592;7.180;2022-11-28T09:37:44;11.23;;;5.78;;
37955;SDS011;23776;51.592;7.180;2022-11-28T09:40:14;15.85;;;7.05;;
37955;SDS011;23776;51.592;7.180;2022-11-28T09:42:47;11.63;;;6.43;;
37955;SDS011;23776;51.592;7.180;2022-11-28T09:45:16;12.40;;;6.55;;
37955;SDS011;23776;51.592;7.180;2022-11-28T09:47:46;16.48;;;7.00;;
37955;SDS011;23776;51.592;7.180;2022-11-28T09:50:20;10.05;;;5.63;;
37955;SDS011;23776;51.592;7.180;2022-11-28T09:52:57;13.73;;;6.40;;
37955;SDS011;23776;51.592;7.180;2022-11-28T09:55:34;15.73;;;6.40;;
37955;SDS011;23776;51.592;7.180;2022-11-28T09:58:18;13.20;;;5.93;;
37955;SDS011;23776;51.592;7.180;2022-11-28T10:06:25;12.13;;;6.30;;
37955;SDS011;23776;51.592;7.180;2022-11-28T10:19:18;10.73;;;6.22;;
37955;SDS011;23776;51.592;7.180;2022-11-28T10:21:50;10.65;;;6.55;;
37955;SDS011;23776;51.592;7.180;2022-11-28T10:24:20;13.35;;;7.25;;
37955;SDS011;23776;51.592;7.180;2022-11-28T10:27:08;13.93;;;6.65;;
37955;SDS011;23776;51.592;7.180;2022-11-28T10:29:42;13.68;;;7.10;;
37955;SDS011;23776;51.592;7.180;2022-11-28T10:32:23;13.15;;;6.50;;
37955;SDS011;23776;51.592;7.180;2022-11-28T10:37:25;15.23;;;7.15;;
37955;SDS011;23776;51.592;7.180;2022-11-28T10:39:55;10.27;;;6.45;;
37955;SDS011;23776;51.592;7.180;2022-11-28T10:42:51;15.00;;;7.63;;
37955;SDS011;23776;51.592;7.180;2022-11-28T10:48:19;15.75;;;7.00;;
37955;SDS011;23776;51.592;7.180;2022-11-28T11:02:39;17.15;;;8.40;;
37955;SDS011;23776;51.592;7.180;2022-11-28T11:05:17;12.32;;;6.28;;
37955;SDS011;23776;51.592;7.180;2022-11-28T11:08:37;16.15;;;7.15;;
37955;SDS011;23776;51.592;7.180;2022-11-28T11:10:49;13.38;;;7.10;;
37955;SDS011;23776;51.592;7.180;2022-11-28T11:13:26;17.15;;;7.60;;
37955;SDS011;23776;51.592;7.180;2022-11-28T11:21:15;14.90;;;7.20;;
37955;SDS011;23776;51.592;7.180;2022-11-28T11:23:46;12.23;;;6.93;;
37955;SDS011;23776;51.592;7.180;2022-11-28T11:26:24;17.83;;;7.53;;
37955;SDS011;23776;51.592;7.180;2022-11-28T11:28:52;17.10;;;7.72;;
37955;SDS011;23776;51.592;7.180;2022-11-28T11:31:26;16.08;;;7.78;;
37955;SDS011;23776;51.592;7.180;2022-11-28T11:37:16;15.30;;;7.78;;
37955;SDS011;23776;51.592;7.180;2022-11-28T11:39:50;17.90;;;8.05;;
37955;SDS011;23776;51.592;7.180;2022-11-28T11:42:24;13.93;;;7.10;;
37955;SDS011;23776;51.592;7.180;2022-11-28T11:44:51;17.65;;;8.25;;
37955;SDS011;23776;51.592;7.180;2022-11-28T11:47:17;15.52;;;7.25;;
37955;SDS011;23776;51.592;7.180;2022-11-28T11:49:47;15.95;;;8.10;;
37955;SDS011;23776;51.592;7.180;2022-11-28T11:55:24;16.20;;;7.75;;
37955;SDS011;23776;51.592;7.180;2022-11-28T11:57:30;17.83;;;8.77;;
37955;SDS011;23776;51.592;7.180;2022-11-28T12:00:06;15.40;;;7.07;;
37955;SDS011;23776;51.592;7.180;2022-11-28T12:02:39;14.27;;;7.53;;
37955;SDS011;23776;51.592;7.180;2022-11-28T12:05:15;16.15;;;8.23;;
37955;SDS011;23776;51.592;7.180;2022-11-28T12:07:47;15.10;;;8.35;;
37955;SDS011;23776;51.592;7.180;2022-11-28T12:10:27;17.00;;;8.40;;
37955;SDS011;23776;51.592;7.180;2022-11-28T12:12:58;14.70;;;8.10;;
37955;SDS011;23776;51.592;7.180;2022-11-28T12:15:39;18.35;;;8.20;;
37955;SDS011;23776;51.592;7.180;2022-11-28T12:18:10;19.30;;;9.05;;
37955;SDS011;23776;51.592;7.180;2022-11-28T12:26:44;20.77;;;8.85;;
37955;SDS011;23776;51.592;7.180;2022-11-28T12:29:21;13.10;;;8.13;;
37955;SDS011;23776;51.592;7.180;2022-11-28T12:32:11;18.40;;;8.93;;
37955;SDS011;23776;51.592;7.180;2022-11-28T12:35:07;21.30;;;9.15;;
37955;SDS011;23776;51.592;7.180;2022-11-28T12:40:34;16.48;;;8.48;;
37955;SDS011;23776;51.592;7.180;2022-11-28T12:48:59;19.77;;;8.88;;
37955;SDS011;23776;51.592;7.180;2022-11-28T12:57:28;16.48;;;8.57;;
37955;SDS011;23776;51.592;7.180;2022-11-28T13:00:18;18.83;;;10.23;;
37955;SDS011;23776;51.592;7.180;2022-11-28T13:13:21;17.63;;;8.93;;
37955;SDS011;23776;51.592;7.180;2022-11-28T13:16:02;15.55;;;8.68;;
37955;SDS011;23776;51.592;7.180;2022-11-28T13:21:10;23.92;;;9.55;;
37955;SDS011;23776;51.592;7.180;2022-11-28T13:26:22;21.63;;;9.70;;
37955;SDS011;23776;51.592;7.180;2022-11-28T13:32:19;19.77;;;8.98;;
37955;SDS011;23776;51.592;7.180;2022-11-28T13:34:52;16.90;;;9.20;;
37955;SDS011;23776;51.592;7.180;2022-11-28T13:37:22;17.00;;;9.00;;
37955;SDS011;23776;51.592;7.180;2022-11-28T13:40:04;23.77;;;9.23;;
37955;SDS011;23776;51.592;7.180;2022-11-28T13:42:41;20.90;;;10.57;;
37955;SDS011;23776;51.592;7.180;2022-11-28T13:47:54;21.02;;;9.68;;
37955;SDS011;23776;51.592;7.180;2022-11-28T13:55:52;20.75;;;10.45;;
37955;SDS011;23776;51.592;7.180;2022-11-28T14:01:30;21.13;;;10.18;;
37955;SDS011;23776;51.592;7.180;2022-11-28T14:04:12;18.45;;;10.15;;
37955;SDS011;23776;51.592;7.180;2022-11-28T14:06:46;21.42;;;10.35;;
37955;SDS011;23776;51.592;7.180;2022-11-28T14:20:26;21.63;;;10.07;;
37955;SDS011;23776;51.592;7.180;2022-11-28T14:25:29;21.27;;;10.65;;
37955;SDS011;23776;51.592;7.180;2022-11-28T14:28:13;21.83;;;10.90;;
37955;SDS011;23776;51.592;7.180;2022-11-28T14:30:45;18.67;;;10.88;;
37955;SDS011;23776;51.592;7.180;2022-11-28T14:33:16;17.75;;;9.82;;
37955;SDS011;23776;51.592;7.180;2022-11-28T14:43:32;21.23;;;10.88;;
37955;SDS011;23776;51.592;7.180;2022-11-28T14:48:43;20.85;;;11.68;;
37955;SDS011;23776;51.592;7.180;2022-11-28T14:54:21;17.35;;;9.55;;
37955;SDS011;23776;51.592;7.180;2022-11-28T14:56:49;18.42;;;9.93;;
37955;SDS011;23776;51.592;7.180;2022-11-28T14:59:16;15.05;;;8.55;;
37955;SDS011;23776;51.592;7.180;2022-11-28T15:01:43;19.80;;;9.40;;
37955;SDS011;23776;51.592;7.180;2022-11-28T15:07:30;14.35;;;8.20;;
37955;SDS011;23776;51.592;7.180;2022-11-28T15:16:04;17.33;;;9.15;;
37955;SDS011;23776;51.592;7.180;2022-11-28T15:18:34;22.75;;;10.85;;
37955;SDS011;23776;51.592;7.180;2022-11-28T15:21:01;23.15;;;9.65;;
37955;SDS011;23776;51.592;7.180;2022-11-28T15:23:31;16.48;;;8.77;;
37955;SDS011;23776;51.592;7.180;2022-11-28T15:25:59;23.65;;;9.88;;
37955;SDS011;23776;51.592;7.180;2022-11-28T15:28:26;16.73;;;9.20;;
37955;SDS011;23776;51.592;7.180;2022-11-28T15:30:56;15.82;;;8.77;;
37955;SDS011;23776;51.592;7.180;2022-11-28T15:33:24;18.15;;;8.50;;
37955;SDS011;23776;51.592;7.180;2022-11-28T15:36:01;16.67;;;8.95;;
37955;SDS011;23776;51.592;7.180;2022-11-28T15:38:44;18.20;;;9.47;;
37955;SDS011;23776;51.592;7.180;2022-11-28T15:41:10;25.35;;;8.93;;
37955;SDS011;23776;51.592;7.180;2022-11-28T15:43:36;21.73;;;10.15;;
37955;SDS011;23776;51.592;7.180;2022-11-28T15:46:11;25.00;;;9.25;;
37955;SDS011;23776;51.592;7.180;2022-11-28T15:48:48;15.32;;;9.07;;
37955;SDS011;23776;51.592;7.180;2022-11-28T15:53:55;15.88;;;8.40;;
37955;SDS011;23776;51.592;7.180;2022-11-28T15:56:21;15.10;;;8.45;;
37955;SDS011;23776;51.592;7.180;2022-11-28T15:58:47;15.05;;;8.00;;
37955;SDS011;23776;51.592;7.180;2022-11-28T16:03:53;15.60;;;9.52;;
37955;SDS011;23776;51.592;7.180;2022-11-28T16:06:25;14.90;;;8.50;;
37955;SDS011;23776;51.592;7.180;2022-11-28T16:08:55;15.38;;;8.75;;
37955;SDS011;23776;51.592;7.180;2022-11-28T16:11:22;15.27;;;8.57;;
37955;SDS011;23776;51.592;7.180;2022-11-28T16:13:50;15.32;;;8.93;;
37955;SDS011;23776;51.592;7.180;2022-11-28T16:16:21;15.30;;;9.13;;
37955;SDS011;23776;51.592;7.180;2022-11-28T16:19:05;14.52;;;8.48;;
37955;SDS011;23776;51.592;7.180;2022-11-28T16:21:54;12.57;;;7.10;;
37955;SDS011;23776;51.592;7.180;2022-11-28T16:26:54;14.25;;;7.63;;
37955;SDS011;23776;51.592;7.180;2022-11-28T16:29:25;14.80;;;7.18;;
37955;SDS011;23776;51.592;7.180;2022-11-28T16:31:54;12.80;;;7.78;;
37955;SDS011;23776;51.592;7.180;2022-11-28T16:34:43;10.98;;;6.88;;
37955;SDS011;23776;51.592;7.180;2022-11-28T16:37:11;10.40;;;6.50;;
37955;SDS011;23776;51.592;7.180;2022-11-28T16:39:37;14.07;;;7.50;;
37955;SDS011;23776;51.592;7.180;2022-11-28T16:42:04;11.63;;;7.35;;
37955;SDS011;23776;51.592;7.180;2022-11-28T16:44:36;13.98;;;7.35;;
37955;SDS011;23776;51.592;7.180;2022-11-28T16:47:01;15.10;;;8.20;;
37955;SDS011;23776;51.592;7.180;2022-11-28T16:49:34;16.58;;;8.50;;
37955;SDS011;23776;51.592;7.180;2022-11-28T16:57:14;12.85;;;8.10;;
37955;SDS011;23776;51.592;7.180;2022-11-28T16:59:41;12.07;;;7.20;;
37955;SDS011;23776;51.592;7.180;2022-11-28T17:02:12;12.38;;;8.13;;
37955;SDS011;23776;51.592;7.180;2022-11-28T17:04:40;15.82;;;8.13;;
37955;SDS011;23776;51.592;7.180;2022-11-28T17:07:08;12.10;;;7.20;;
37955;SDS011;23776;51.592;7.180;2022-11-28T17:09:37;13.35;;;8.30;;
37955;SDS011;23776;51.592;7.180;2022-11-28T17:14:51;12.55;;;8.10;;
37955;SDS011;23776;51.592;7.180;2022-11-28T17:17:17;16.08;;;7.85;;
37955;SDS011;23776;51.592;7.180;2022-11-28T17:19:44;16.27;;;8.23;;
37955;SDS011;23776;51.592;7.180;2022-11-28T17:22:10;13.35;;;7.20;;
37955;SDS011;23776;51.592;7.180;2022-11-28T17:24:39;15.88;;;8.75;;
37955;SDS011;23776;51.592;7.180;2022-11-28T17:27:06;19.60;;;8.50;;
37955;SDS011;23776;51.592;7.180;2022-11-28T17:29:32;21.65;;;8.75;;
37955;SDS011;23776;51.592;7.180;2022-11-28T17:31:58;17.10;;;9.57;;
37955;SDS011;23776;51.592;7.180;2022-11-28T17:34:26;22.65;;;9.25;;
37955;SDS011;23776;51.592;7.180;2022-11-28T17:36:58;20.05;;;9.60;;
37955;SDS011;23776;51.592;7.180;2022-11-28T17:39:25;17.52;;;9.50;;
37955;SDS011;23776;51.592;7.180;2022-11-28T17:41:54;19.05;;;9.77;;
37955;SDS011;23776;51.592;7.180;2022-11-28T17:44:23;20.23;;;10.80;;
37955;SDS011;23776;51.592;7.180;2022-11-28T17:46:54;17.77;;;9.65;;
37955;SDS011;23776;51.592;7.180;2022-11-28T17:49:21;24.08;;;9.85;;
37955;SDS011;23776;51.592;7.180;2022-11-28T17:51:48;18.10;;;9.77;;
37955;SDS011;23776;51.592;7.180;2022-11-28T17:54:15;18.23;;;10.05;;
37955;SDS011;23776;51.592;7.180;2022-11-28T17:56:43;18.08;;;9.38;;
37955;SDS011;23776;51.592;7.180;2022-11-28T17:59:10;22.98;;;10.43;;
37955;SDS011;23776;51.592;7.180;2022-11-28T18:01:36;25.35;;;12.48;;